sensor_id;sensor_type;location;lat;lon;timestamp;temperature;humidity
44707;DHT22;30433;45.596;8.408;2023-06-14T00:04:45;18.20;99.90
44707;DHT22;30433;45.596;8.408;2023-06-14T00:10:50;18.20;99.90
44707;DHT22;30433;45.596;8.408;2023-06-14T00:16:52;18.10;99.90
44707;DHT22;30433;45.596;8.408;2023-06-14T00:22:59;18.10;99.90
44707;DHT22;30433;45.596;8.408;2023-06-14T00:29:02;18.20;99.90
44707;DHT22;30433;45.596;8.408;2023-06-14T00:35:08;18.10;99.90
44707;DHT22;30433;45.596;8.408;2023-06-14T00:41:10;18.00;99.90
44707;DHT22;30433;45.596;8.408;2023-06-14T00:47:13;17.90;99.90
44707;DHT22;30433;45.596;8.408;2023-06-14T00:53:16;17.90;99.90
44707;DHT22;30433;45.596;8.408;2023-06-14T00:59:19;17.80;99.90
44707;DHT22;30433;45.596;8.408;2023-06-14T01:05:23;17.80;99.90
44707;DHT22;30433;45.596;8.408;2023-06-14T01:11:30;17.70;99.90
44707;DHT22;30433;45.596;8.408;2023-06-14T01:17:36;17.70;99.90
44707;DHT22;30433;45.596;8.408;2023-06-14T01:23:45;17.80;99.90
44707;DHT22;30433;45.596;8.408;2023-06-14T01:29:54;17.80;99.90
44707;DHT22;30433;45.596;8.408;2023-06-14T01:35:57;17.90;99.90
44707;DHT22;30433;45.596;8.408;2023-06-14T01:42:01;17.80;99.90
44707;DHT22;30433;45.596;8.408;2023-06-14T01:48:04;17.70;99.90
44707;DHT22;30433;45.596;8.408;2023-06-14T01:54:06;17.70;99.90
44707;DHT22;30433;45.596;8.408;2023-06-14T02:00:11;17.70;99.90
44707;DHT22;30433;45.596;8.408;2023-06-14T02:06:14;17.80;99.90
44707;DHT22;30433;45.596;8.408;2023-06-14T02:12:16;17.90;99.90
44707;DHT22;30433;45.596;8.408;2023-06-14T02:18:20;17.90;99.90
44707;DHT22;30433;45.596;8.408;2023-06-14T02:24:22;17.80;99.90
44707;DHT22;30433;45.596;8.408;2023-06-14T02:30:24;17.60;99.90
44707;DHT22;30433;45.596;8.408;2023-06-14T02:36:28;17.50;99.90
44707;DHT22;30433;45.596;8.408;2023-06-14T02:42:31;17.30;99.90
44707;DHT22;30433;45.596;8.408;2023-06-14T02:48:33;17.20;99.90
44707;DHT22;30433;45.596;8.408;2023-06-14T02:54:39;17.20;99.90
44707;DHT22;30433;45.596;8.408;2023-06-14T03:00:42;17.20;99.90
44707;DHT22;30433;45.596;8.408;2023-06-14T03:06:44;17.10;99.90
44707;DHT22;30433;45.596;8.408;2023-06-14T03:12:52;17.10;99.90
44707;DHT22;30433;45.596;8.408;2023-06-14T03:18:54;17.10;99.90
44707;DHT22;30433;45.596;8.408;2023-06-14T03:24:56;17.30;99.90
44707;DHT22;30433;45.596;8.408;2023-06-14T03:31:01;17.20;99.90
44707;DHT22;30433;45.596;8.408;2023-06-14T03:37:04;17.00;99.90
44707;DHT22;30433;45.596;8.408;2023-06-14T03:43:06;17.20;99.90
44707;DHT22;30433;45.596;8.408;2023-06-14T03:49:09;17.20;99.90
44707;DHT22;30433;45.596;8.408;2023-06-14T03:55:12;17.20;99.90
44707;DHT22;30433;45.596;8.408;2023-06-14T04:01:14;17.10;99.90
44707;DHT22;30433;45.596;8.408;2023-06-14T04:07:18;17.20;99.90
44707;DHT22;30433;45.596;8.408;2023-06-14T04:13:20;17.00;99.90
44707;DHT22;30433;45.596;8.408;2023-06-14T04:19:22;17.00;99.90
44707;DHT22;30433;45.596;8.408;2023-06-14T04:25:26;17.00;99.90
44707;DHT22;30433;45.596;8.408;2023-06-14T04:31:31;17.10;99.90
44707;DHT22;30433;45.596;8.408;2023-06-14T04:37:40;17.00;99.90
44707;DHT22;30433;45.596;8.408;2023-06-14T04:43:43;17.00;99.90
44707;DHT22;30433;45.596;8.408;2023-06-14T04:49:49;17.00;99.90
44707;DHT22;30433;45.596;8.408;2023-06-14T04:55:54;17.10;99.90
44707;DHT22;30433;45.596;8.408;2023-06-14T05:01:57;17.10;99.90
44707;DHT22;30433;45.596;8.408;2023-06-14T05:08:00;17.30;99.90
44707;DHT22;30433;45.596;8.408;2023-06-14T05:14:02;17.30;99.90
44707;DHT22;30433;45.596;8.408;2023-06-14T05:20:07;17.40;99.90
44707;DHT22;30433;45.596;8.408;2023-06-14T05:26:11;17.40;99.90
44707;DHT22;30433;45.596;8.408;2023-06-14T05:32:13;17.50;99.90
44707;DHT22;30433;45.596;8.408;2023-06-14T05:38:16;17.50;99.90
44707;DHT22;30433;45.596;8.408;2023-06-14T05:44:18;17.40;99.90
44707;DHT22;30433;45.596;8.408;2023-06-14T05:50:21;17.40;99.90
44707;DHT22;30433;45.596;8.408;2023-06-14T05:56:24;17.40;99.90
44707;DHT22;30433;45.596;8.408;2023-06-14T06:02:27;17.40;99.90
44707;DHT22;30433;45.596;8.408;2023-06-14T06:08:29;17.40;99.90
44707;DHT22;30433;45.596;8.408;2023-06-14T06:14:33;17.60;99.90
44707;DHT22;30433;45.596;8.408;2023-06-14T06:20:35;17.50;99.90
44707;DHT22;30433;45.596;8.408;2023-06-14T06:26:37;17.40;99.90
44707;DHT22;30433;45.596;8.408;2023-06-14T06:32:41;17.70;99.90
44707;DHT22;30433;45.596;8.408;2023-06-14T06:38:44;17.60;99.90
44707;DHT22;30433;45.596;8.408;2023-06-14T06:44:46;17.80;99.90
44707;DHT22;30433;45.596;8.408;2023-06-14T06:50:49;17.70;99.90
44707;DHT22;30433;45.596;8.408;2023-06-14T06:56:51;17.80;99.90
44707;DHT22;30433;45.596;8.408;2023-06-14T07:02:54;17.80;99.90
44707;DHT22;30433;45.596;8.408;2023-06-14T07:08:59;18.00;99.90
44707;DHT22;30433;45.596;8.408;2023-06-14T07:15:02;18.10;99.90
44707;DHT22;30433;45.596;8.408;2023-06-14T07:21:04;18.30;99.90
44707;DHT22;30433;45.596;8.408;2023-06-14T07:27:07;18.40;99.90
44707;DHT22;30433;45.596;8.408;2023-06-14T07:33:10;18.40;99.90
44707;DHT22;30433;45.596;8.408;2023-06-14T07:39:13;18.50;99.90
44707;DHT22;30433;45.596;8.408;2023-06-14T07:45:16;18.60;99.90
44707;DHT22;30433;45.596;8.408;2023-06-14T07:51:18;18.80;99.90
44707;DHT22;30433;45.596;8.408;2023-06-14T07:57:22;18.70;99.90
44707;DHT22;30433;45.596;8.408;2023-06-14T08:03:26;18.70;99.90
44707;DHT22;30433;45.596;8.408;2023-06-14T08:09:28;18.50;99.90
44707;DHT22;30433;45.596;8.408;2023-06-14T08:15:30;18.50;99.90
44707;DHT22;30433;45.596;8.408;2023-06-14T08:21:34;18.50;99.90
44707;DHT22;30433;45.596;8.408;2023-06-14T08:27:37;18.50;99.90
44707;DHT22;30433;45.596;8.408;2023-06-14T08:33:39;18.50;99.90
44707;DHT22;30433;45.596;8.408;2023-06-14T08:39:45;18.60;99.90
44707;DHT22;30433;45.596;8.408;2023-06-14T08:45:48;18.80;99.90
44707;DHT22;30433;45.596;8.408;2023-06-14T08:51:59;18.90;99.90
44707;DHT22;30433;45.596;8.408;2023-06-14T08:58:04;19.20;99.90
44707;DHT22;30433;45.596;8.408;2023-06-14T09:04:06;19.20;99.90
44707;DHT22;30433;45.596;8.408;2023-06-14T09:10:10;19.30;99.90
44707;DHT22;30433;45.596;8.408;2023-06-14T09:16:14;19.40;99.90
44707;DHT22;30433;45.596;8.408;2023-06-14T09:22:18;19.60;99.90
44707;DHT22;30433;45.596;8.408;2023-06-14T09:28:27;20.00;99.90
44707;DHT22;30433;45.596;8.408;2023-06-14T09:34:30;20.10;99.90
44707;DHT22;30433;45.596;8.408;2023-06-14T09:40:34;20.50;99.90
44707;DHT22;30433;45.596;8.408;2023-06-14T09:46:38;20.70;99.90
44707;DHT22;30433;45.596;8.408;2023-06-14T09:52:44;21.20;99.90
44707;DHT22;30433;45.596;8.408;2023-06-14T09:58:50;21.50;99.90
44707;DHT22;30433;45.596;8.408;2023-06-14T10:04:58;21.50;99.90
44707;DHT22;30433;45.596;8.408;2023-06-14T10:11:08;21.10;99.90
44707;DHT22;30433;45.596;8.408;2023-06-14T10:17:13;21.60;99.90
44707;DHT22;30433;45.596;8.408;2023-06-14T10:23:22;21.80;99.90
44707;DHT22;30433;45.596;8.408;2023-06-14T10:29:27;22.00;99.90
44707;DHT22;30433;45.596;8.408;2023-06-14T10:35:32;22.70;99.90
44707;DHT22;30433;45.596;8.408;2023-06-14T10:41:36;22.30;99.90
44707;DHT22;30433;45.596;8.408;2023-06-14T10:47:40;23.10;99.90
44707;DHT22;30433;45.596;8.408;2023-06-14T10:53:42;22.50;99.90
44707;DHT22;30433;45.596;8.408;2023-06-14T10:59:47;22.70;99.90
44707;DHT22;30433;45.596;8.408;2023-06-14T11:05:54;22.50;99.90
44707;DHT22;30433;45.596;8.408;2023-06-14T14:23:42;23.70;99.90
44707;DHT22;30433;45.596;8.408;2023-06-14T14:29:46;23.60;99.90
44707;DHT22;30433;45.596;8.408;2023-06-14T14:35:48;23.40;99.90
44707;DHT22;30433;45.596;8.408;2023-06-14T14:48:29;23.50;99.90
44707;DHT22;30433;45.596;8.408;2023-06-14T15:01:28;23.50;99.90
44707;DHT22;30433;45.596;8.408;2023-06-14T15:07:31;23.40;99.90
44707;DHT22;30433;45.596;8.408;2023-06-14T15:20:51;23.40;99.90
44707;DHT22;30433;45.596;8.408;2023-06-14T15:40:30;23.20;99.90
44707;DHT22;30433;45.596;8.408;2023-06-14T15:46:32;23.10;99.90
44707;DHT22;30433;45.596;8.408;2023-06-14T15:52:34;22.80;99.90
44707;DHT22;30433;45.596;8.408;2023-06-14T15:58:37;22.80;99.90
44707;DHT22;30433;45.596;8.408;2023-06-14T16:11:52;23.10;99.90
44707;DHT22;30433;45.596;8.408;2023-06-14T16:17:56;23.20;99.90
44707;DHT22;30433;45.596;8.408;2023-06-14T16:23:59;23.20;99.90
44707;DHT22;30433;45.596;8.408;2023-06-14T16:30:10;23.20;99.90
44707;DHT22;30433;45.596;8.408;2023-06-14T16:36:13;23.10;99.90
44707;DHT22;30433;45.596;8.408;2023-06-14T16:49:13;23.10;99.90
44707;DHT22;30433;45.596;8.408;2023-06-14T16:55:17;23.00;99.90
44707;DHT22;30433;45.596;8.408;2023-06-14T17:01:19;23.00;99.90
44707;DHT22;30433;45.596;8.408;2023-06-14T17:07:21;23.00;99.90
44707;DHT22;30433;45.596;8.408;2023-06-14T17:13:25;22.90;99.90
44707;DHT22;30433;45.596;8.408;2023-06-14T17:19:31;22.80;99.90
44707;DHT22;30433;45.596;8.408;2023-06-14T17:25:53;22.80;99.90
44707;DHT22;30433;45.596;8.408;2023-06-14T17:38:35;22.60;99.90
44707;DHT22;30433;45.596;8.408;2023-06-14T17:44:37;22.60;99.90
44707;DHT22;30433;45.596;8.408;2023-06-14T17:50:39;22.40;99.90
44707;DHT22;30433;45.596;8.408;2023-06-14T17:56:43;22.30;99.90
44707;DHT22;30433;45.596;8.408;2023-06-14T18:02:45;22.30;99.90
44707;DHT22;30433;45.596;8.408;2023-06-14T18:30:21;21.70;99.90
44707;DHT22;30433;45.596;8.408;2023-06-14T18:36:38;21.40;99.90
44707;DHT22;30433;45.596;8.408;2023-06-14T18:49:40;21.30;99.90
44707;DHT22;30433;45.596;8.408;2023-06-14T18:55:42;21.00;99.90
44707;DHT22;30433;45.596;8.408;2023-06-14T19:08:43;20.70;99.90
44707;DHT22;30433;45.596;8.408;2023-06-14T19:14:47;20.70;99.90
44707;DHT22;30433;45.596;8.408;2023-06-14T19:28:18;20.50;99.90
44707;DHT22;30433;45.596;8.408;2023-06-14T19:34:22;20.40;99.90
44707;DHT22;30433;45.596;8.408;2023-06-14T19:40:24;20.30;99.90
44707;DHT22;30433;45.596;8.408;2023-06-14T19:46:28;20.10;99.90
44707;DHT22;30433;45.596;8.408;2023-06-14T19:52:30;20.00;99.90
44707;DHT22;30433;45.596;8.408;2023-06-14T19:58:33;19.80;99.90
44707;DHT22;30433;45.596;8.408;2023-06-14T20:18:33;19.70;99.90
44707;DHT22;30433;45.596;8.408;2023-06-14T20:39:32;19.50;99.90
44707;DHT22;30433;45.596;8.408;2023-06-14T20:52:32;19.40;99.90
44707;DHT22;30433;45.596;8.408;2023-06-14T20:58:36;19.20;99.90
44707;DHT22;30433;45.596;8.408;2023-06-14T21:11:35;19.50;99.90
44707;DHT22;30433;45.596;8.408;2023-06-14T21:18:12;19.30;99.90
44707;DHT22;30433;45.596;8.408;2023-06-14T21:46:39;19.40;99.90
44707;DHT22;30433;45.596;8.408;2023-06-14T21:52:41;19.40;99.90
44707;DHT22;30433;45.596;8.408;2023-06-14T22:05:42;19.30;99.90
44707;DHT22;30433;45.596;8.408;2023-06-14T22:11:44;19.30;99.90
44707;DHT22;30433;45.596;8.408;2023-06-14T23:00:58;19.20;99.90
44707;DHT22;30433;45.596;8.408;2023-06-14T23:07:01;18.90;99.90
44707;DHT22;30433;45.596;8.408;2023-06-14T23:13:17;18.80;99.90
44707;DHT22;30433;45.596;8.408;2023-06-14T23:19:21;18.70;99.90
44707;DHT22;30433;45.596;8.408;2023-06-14T23:25:23;18.90;99.90
44707;DHT22;30433;45.596;8.408;2023-06-14T23:38:24;18.60;99.90
44707;DHT22;30433;45.596;8.408;2023-06-14T23:51:27;17.20;99.90
